Time;durP1;ratioP1;P1;durP2;ratioP2;P2;SDS_P1;SDS_P2;PMS_P1;PMS_P2;Temp;Humidity;BMP_temperature;BMP_pressure;BME280_temperature;BME280_humidity;BME280_pressure;Samples;Min_cycle;Max_cycle;Signal;HPM_P1;HPM_P2
2023/08/18 00:01:25;;;;;;;14.80;11.25;;;;;;;-145.63;51.77;38601.84;5024702;28;20022;-65
2023/08/18 00:03:51;;;;;;;18.95;11.55;;;;;;;-145.63;51.87;38592.09;5024697;28;20022;-65
2023/08/18 00:06:16;;;;;;;16.02;10.82;;;;;;;-145.63;51.60;38599.91;5024497;28;20041;-64
2023/08/18 00:08:42;;;;;;;17.88;11.40;;;;;;;-145.63;51.89;38556.88;5023426;28;20030;-64
2023/08/18 00:11:08;;;;;;;17.30;11.77;;;;;;;-145.63;51.94;38582.31;5023214;28;20042;-63
2023/08/18 00:13:34;;;;;;;12.60;10.88;;;;;;;-145.63;52.00;38580.34;5024492;28;20132;-66
2023/08/18 00:16:00;;;;;;;15.30;12.15;;;;;;;-145.63;51.87;38558.84;5024382;28;20041;-66
2023/08/18 00:18:26;;;;;;;15.40;12.05;;;;;;;-145.63;51.99;38586.22;5024250;28;20321;-65
2023/08/18 00:20:51;;;;;;;16.65;13.40;;;;;;;-145.63;52.01;38511.91;5024233;28;20037;-66
2023/08/18 00:23:17;;;;;;;20.17;13.32;;;;;;;-145.63;52.28;38613.59;5011522;28;20038;-66
2023/08/18 00:25:43;;;;;;;18.58;13.13;;;;;;;-145.63;52.27;38607.72;5013837;28;20281;-66
2023/08/18 00:28:08;;;;;;;16.90;12.13;;;;;;;-145.63;52.23;38599.91;5022999;28;20313;-65
2023/08/18 00:30:34;;;;;;;18.15;12.32;;;;;;;-145.63;52.36;38617.50;5022946;28;20041;-65
2023/08/18 00:33:00;;;;;;;16.52;12.05;;;;;;;-145.63;52.38;38584.25;5004444;28;20054;-65
2023/08/18 00:35:26;;;;;;;14.82;11.88;;;;;;;-145.63;52.31;38584.25;5019303;28;20035;-65
2023/08/18 00:37:52;;;;;;;15.43;12.60;;;;;;;-145.63;52.44;38551.03;5024214;28;20194;-66
2023/08/18 00:40:18;;;;;;;18.27;12.35;;;;;;;-145.63;52.32;38560.78;5023737;28;20206;-66
2023/08/18 00:42:46;;;;;;;18.52;11.27;;;;;;;-145.63;52.25;38613.59;5005829;28;20033;-65
2023/08/18 00:45:11;;;;;;;17.10;11.18;;;;;;;-145.63;52.04;38601.84;5023745;28;20033;-66
2023/08/18 00:47:38;;;;;;;14.80;11.80;;;;;;;-145.63;52.12;38597.94;5023778;28;20044;-65
2023/08/18 00:50:05;;;;;;;13.13;10.75;;;;;;;-145.63;52.38;38566.66;5023951;28;20022;-64
2023/08/18 00:52:31;;;;;;;16.80;12.13;;;;;;;-145.63;52.56;38609.69;5023563;28;20340;-65
2023/08/18 00:54:58;;;;;;;14.05;11.38;;;;;;;-145.63;52.26;38570.56;5020604;28;20041;-63
2023/08/18 00:57:23;;;;;;;17.63;11.05;;;;;;;-145.63;52.44;38566.66;5023782;28;20392;-65
2023/08/18 00:59:50;;;;;;;14.35;11.75;;;;;;;-145.63;52.30;38558.84;5023647;28;20034;-64
2023/08/18 01:02:17;;;;;;;15.40;10.73;;;;;;;-145.63;52.44;38586.22;5023577;28;20025;-65
2023/08/18 01:04:44;;;;;;;15.88;11.52;;;;;;;-145.63;52.29;38592.09;5023834;28;20040;-65
2023/08/18 01:07:09;;;;;;;14.73;11.32;;;;;;;-145.63;52.34;38562.75;5023617;28;20171;-65
2023/08/18 01:09:35;;;;;;;15.63;11.70;;;;;;;-145.63;52.69;38535.38;5023665;28;20030;-66
2023/08/18 01:12:32;;;;;;;17.25;11.05;;;;;;;-145.63;52.50;38556.88;5023057;28;20021;-65
2023/08/18 01:14:58;;;;;;;16.13;11.18;;;;;;;-145.63;52.29;38586.22;5023385;28;20064;-64
2023/08/18 01:17:49;;;;;;;13.15;10.02;;;;;;;-145.63;52.50;38549.06;5023489;28;20025;-64
2023/08/18 01:20:17;;;;;;;13.07;9.38;;;;;;;-145.63;52.43;38562.75;5014569;28;20321;-66
2023/08/18 01:22:44;;;;;;;13.18;9.68;;;;;;;-145.63;52.06;38596.00;5022480;28;20034;-65
2023/08/18 01:25:10;;;;;;;13.43;9.38;;;;;;;-145.63;52.14;38562.75;5023218;28;20316;-65
2023/08/18 01:27:36;;;;;;;12.43;9.50;;;;;;;-145.63;52.34;38580.34;5023487;28;20057;-64
2023/08/18 01:30:03;;;;;;;12.80;8.95;;;;;;;-145.63;52.32;38551.03;5023502;28;20217;-64
2023/08/18 01:32:35;;;;;;;11.52;9.05;;;;;;;-145.63;52.29;38592.09;5023146;28;20052;-65
2023/08/18 01:35:03;;;;;;;13.38;9.55;;;;;;;-145.63;52.03;38554.94;5023685;28;20017;-65
2023/08/18 01:37:30;;;;;;;9.30;7.72;;;;;;;-145.63;52.24;38586.22;5023263;28;20041;-65
2023/08/18 01:39:59;;;;;;;11.18;9.27;;;;;;;-145.63;52.20;38558.84;5023539;28;20072;-64
2023/08/18 01:42:26;;;;;;;14.25;9.43;;;;;;;-145.63;52.01;38580.34;5023091;28;20053;-63
2023/08/18 01:44:51;;;;;;;11.73;8.75;;;;;;;-145.63;52.34;38535.38;5023070;28;20026;-65
2023/08/18 01:47:17;;;;;;;13.70;9.45;;;;;;;-145.63;52.46;38590.13;5023157;28;20029;-64
2023/08/18 01:49:43;;;;;;;11.23;8.70;;;;;;;-145.63;52.50;38603.81;5023143;28;20036;-64
2023/08/18 01:52:09;;;;;;;10.25;7.75;;;;;;;-145.63;52.39;38609.69;5023214;28;20364;-65
2023/08/18 01:54:34;;;;;;;13.13;8.90;;;;;;;-145.63;52.21;38558.84;5023139;28;20266;-65
2023/08/18 01:57:00;;;;;;;9.32;7.65;;;;;;;-145.63;52.14;38578.41;5023069;28;20340;-64
2023/08/18 01:59:26;;;;;;;9.52;8.25;;;;;;;-145.63;52.33;38617.50;5022929;28;20040;-65
2023/08/18 02:01:51;;;;;;;10.88;7.93;;;;;;;-145.63;52.63;38621.41;5023075;28;20080;-64
2023/08/18 02:04:17;;;;;;;11.40;7.70;;;;;;;-145.63;52.24;38590.13;5022998;28;20022;-65
2023/08/18 02:06:43;;;;;;;11.23;8.85;;;;;;;-145.63;52.13;38613.59;5023051;28;20256;-65
2023/08/18 02:09:08;;;;;;;11.23;8.25;;;;;;;-145.63;52.23;38621.41;5023231;28;20034;-64
2023/08/18 02:11:34;;;;;;;12.98;8.88;;;;;;;-145.63;52.52;38597.94;5023038;28;20030;-66
2023/08/18 02:13:59;;;;;;;13.80;9.13;;;;;;;-145.63;52.62;38609.69;5022980;28;20026;-65
2023/08/18 02:16:25;;;;;;;13.32;8.60;;;;;;;-145.63;52.63;38597.94;5022747;28;20030;-65
2023/08/18 02:18:51;;;;;;;16.63;9.23;;;;;;;-145.63;52.94;38601.84;5022838;28;20029;-64
2023/08/18 02:21:16;;;;;;;13.27;8.82;;;;;;;-145.63;52.72;38623.38;5022759;28;20088;-64
2023/08/18 02:23:42;;;;;;;11.90;8.10;;;;;;;-145.63;52.73;38599.91;5024404;28;20207;-65
2023/08/18 02:26:08;;;;;;;12.27;9.50;;;;;;;-145.63;52.83;38611.63;5026304;28;20305;-64
2023/08/18 02:28:34;;;;;;;12.80;9.13;;;;;;;-145.63;52.95;38621.41;5026314;28;20325;-65
2023/08/18 02:31:05;;;;;;;14.05;9.02;;;;;;;-145.63;52.84;38629.22;5026506;28;20064;-65
2023/08/18 02:33:33;;;;;;;13.73;9.00;;;;;;;-145.63;52.88;38594.03;5026670;28;20029;-65
2023/08/18 02:35:59;;;;;;;12.85;8.30;;;;;;;-145.63;52.91;38609.69;5026353;28;20041;-64
2023/08/18 02:38:26;;;;;;;14.20;7.90;;;;;;;-145.63;52.98;38619.47;5025919;28;20088;-65
2023/08/18 02:40:52;;;;;;;11.52;8.77;;;;;;;-145.63;52.83;38648.78;5026052;28;20026;-64
2023/08/18 02:43:18;;;;;;;20.23;8.98;;;;;;;-145.63;53.08;38621.41;5026048;28;20056;-63
2023/08/18 02:45:44;;;;;;;12.13;9.13;;;;;;;-145.63;53.06;38627.28;5026311;28;20072;-65
2023/08/18 02:48:12;;;;;;;11.38;8.90;;;;;;;-145.63;53.25;38621.41;5026292;28;20309;-65
2023/08/18 02:50:39;;;;;;;11.35;8.52;;;;;;;-145.63;53.25;38613.59;5025789;28;20045;-65
2023/08/18 02:53:05;;;;;;;9.85;8.35;;;;;;;-145.63;53.21;38619.47;5025887;28;20026;-65
2023/08/18 02:55:30;;;;;;;12.55;8.45;;;;;;;-145.63;53.04;38633.16;5026089;28;20175;-64
2023/08/18 02:57:56;;;;;;;11.25;8.40;;;;;;;-145.63;53.17;38625.31;5025694;28;20048;-64
2023/08/18 03:00:22;;;;;;;13.63;8.45;;;;;;;-145.63;53.25;38631.19;5026086;28;20025;-65
2023/08/18 03:02:49;;;;;;;15.07;8.38;;;;;;;-145.63;53.12;38623.38;5025769;28;20091;-65
2023/08/18 03:05:15;;;;;;;10.60;9.13;;;;;;;-145.63;53.07;38597.94;5025817;28;20026;-65
2023/08/18 03:07:41;;;;;;;10.55;8.27;;;;;;;-145.63;53.09;38586.22;5025612;28;20190;-65
2023/08/18 03:10:07;;;;;;;16.50;8.85;;;;;;;-145.63;53.09;38582.31;5025645;28;20026;-63
2023/08/18 03:12:33;;;;;;;12.65;8.80;;;;;;;-145.63;53.25;38617.50;5025467;28;20026;-64
2023/08/18 03:14:58;;;;;;;12.43;8.35;;;;;;;-145.63;52.98;38596.00;5025542;28;20168;-63
2023/08/18 03:17:24;;;;;;;13.13;8.50;;;;;;;-145.63;52.81;38582.31;5025456;28;20301;-65
2023/08/18 03:19:49;;;;;;;13.90;8.77;;;;;;;-145.63;52.98;38601.84;5025501;28;20034;-65
2023/08/18 03:22:15;;;;;;;12.77;8.77;;;;;;;-145.63;52.81;38551.03;5025283;28;20049;-65
2023/08/18 03:24:40;;;;;;;10.35;8.38;;;;;;;-145.63;52.81;38603.81;5025182;28;20034;-64
2023/08/18 03:27:06;;;;;;;10.68;7.88;;;;;;;-145.63;53.13;38547.09;5024923;28;20033;-65
2023/08/18 03:29:32;;;;;;;12.35;8.48;;;;;;;-145.63;53.08;38607.72;5025136;28;20029;-65
2023/08/18 03:31:58;;;;;;;9.95;8.30;;;;;;;-145.63;52.94;38588.16;5025380;28;20026;-66
2023/08/18 03:34:24;;;;;;;13.43;8.68;;;;;;;-145.63;53.11;38580.34;5024597;28;20026;-66
2023/08/18 03:36:49;;;;;;;9.68;8.05;;;;;;;-145.63;53.02;38590.13;5025284;28;20033;-65
2023/08/18 03:39:15;;;;;;;12.50;8.43;;;;;;;-145.63;52.54;38564.72;5025078;28;20093;-65
2023/08/18 03:41:41;;;;;;;9.73;8.43;;;;;;;-145.63;52.52;38527.56;5014352;28;20034;-65
2023/08/18 03:44:06;;;;;;;16.17;9.30;;;;;;;-145.63;52.27;38504.09;5016082;28;20026;-66
2023/08/18 03:46:33;;;;;;;13.52;8.43;;;;;;;-145.63;52.18;38513.88;5024764;28;20030;-65
2023/08/18 03:48:59;;;;;;;10.70;8.52;;;;;;;-145.63;52.25;38464.97;5024817;28;20025;-66
2023/08/18 03:51:25;;;;;;;16.75;9.57;;;;;;;-145.63;52.40;38472.81;5024505;28;20092;-65
2023/08/18 03:53:51;;;;;;;16.42;9.60;;;;;;;-145.63;52.31;38488.44;5024503;28;20072;-65
2023/08/18 03:56:16;;;;;;;15.95;9.05;;;;;;;-145.63;52.25;38463.03;5024888;28;20029;-64
2023/08/18 03:58:42;;;;;;;11.77;9.18;;;;;;;-145.63;52.23;38455.22;5024781;28;20298;-64
2023/08/18 04:01:08;;;;;;;15.38;9.57;;;;;;;-145.63;52.06;38464.97;5024506;28;20040;-66
2023/08/18 04:03:38;;;;;;;15.65;9.63;;;;;;;-145.63;52.06;38402.41;5024646;28;20141;-66
2023/08/18 04:06:05;;;;;;;22.25;10.73;;;;;;;-145.63;51.43;38392.63;5023430;28;20057;-65
2023/08/18 04:08:38;;;;;;;18.15;10.10;;;;;;;-145.63;52.33;38410.22;5023214;28;20026;-65
2023/08/18 04:11:04;;;;;;;17.38;10.95;;;;;;;-145.63;52.31;38427.84;5024459;28;20198;-65
2023/08/18 04:13:29;;;;;;;23.48;11.75;;;;;;;-145.63;52.65;38431.75;5024492;28;20034;-65
2023/08/18 04:15:55;;;;;;;21.63;11.02;;;;;;;-145.63;52.05;38421.97;5024472;28;20036;-65
2023/08/18 04:18:21;;;;;;;18.55;11.00;;;;;;;-145.63;51.69;38349.63;5024198;28;20191;-66
2023/08/18 04:20:47;;;;;;;22.05;13.07;;;;;;;-145.63;52.45;38373.09;5024344;28;20416;-65
2023/08/18 04:23:12;;;;;;;21.33;12.25;;;;;;;-145.63;51.18;38304.66;5023041;28;20278;-64
2023/08/18 04:25:40;;;;;;;21.35;12.23;;;;;;;-145.63;49.92;38353.53;5024242;28;20041;-65
2023/08/18 04:28:06;;;;;;;22.33;11.93;;;;;;;-145.63;48.95;38320.28;5024240;28;20041;-66
2023/08/18 04:30:32;;;;;;;17.52;11.57;;;;;;;-145.63;48.92;38302.69;5024158;28;20048;-65
2023/08/18 04:32:57;;;;;;;15.63;10.77;;;;;;;-145.63;47.15;38265.53;5024157;28;20029;-65
2023/08/18 04:35:23;;;;;;;18.10;9.80;;;;;;;-145.63;45.97;38249.91;5024094;28;20025;-65
2023/08/18 04:37:49;;;;;;;17.85;10.32;;;;;;;-145.63;46.22;38253.81;5024048;28;20075;-65
2023/08/18 04:40:14;;;;;;;15.52;9.93;;;;;;;-145.63;46.44;38247.94;5024006;28;20032;-66
2023/08/18 04:42:40;;;;;;;13.63;9.40;;;;;;;-145.63;46.48;38195.16;5023775;28;20045;-65
2023/08/18 04:45:06;;;;;;;15.18;9.60;;;;;;;-145.63;46.59;38222.53;5023368;28;20018;-66
2023/08/18 04:47:32;;;;;;;14.85;9.35;;;;;;;-145.63;46.61;38202.97;5023410;28;20075;-66
2023/08/18 04:49:58;;;;;;;20.30;9.35;;;;;;;-145.63;46.64;38199.06;5023674;28;20026;-65
2023/08/18 04:52:24;;;;;;;17.50;10.38;;;;;;;-145.63;45.69;38195.16;5024067;28;20053;-65
2023/08/18 04:54:49;;;;;;;13.68;10.68;;;;;;;-145.63;45.11;38175.59;5023642;28;20317;-66
2023/08/18 04:57:15;;;;;;;17.35;10.27;;;;;;;-145.63;44.94;38183.44;5023838;28;20191;-65
2023/08/18 04:59:41;;;;;;;11.10;9.18;;;;;;;-145.63;45.87;38173.66;5023575;28;20025;-64
2023/08/18 05:02:07;;;;;;;13.40;9.82;;;;;;;-145.63;46.01;38140.41;5023798;28;20040;-65
2023/08/18 05:04:33;;;;;;;15.75;9.77;;;;;;;-145.63;45.95;38146.28;5023367;28;20029;-66
2023/08/18 05:07:00;;;;;;;14.35;10.18;;;;;;;-145.63;45.56;38171.69;5023866;28;20096;-66
2023/08/18 05:09:25;;;;;;;15.80;9.00;;;;;;;-145.63;45.58;38158.00;5022499;28;20320;-66
2023/08/18 05:11:51;;;;;;;12.25;8.65;;;;;;;-145.63;46.54;38156.06;5023718;28;20026;-63
2023/08/18 05:14:17;;;;;;;14.00;10.05;;;;;;;-145.63;46.14;38183.44;5023392;28;20076;-64
2023/08/18 05:16:42;;;;;;;23.58;11.40;;;;;;;-145.63;47.21;38191.25;5023693;28;20397;-66
2023/08/18 05:19:08;;;;;;;17.25;12.40;;;;;;;-145.63;48.43;38187.34;5017993;28;20073;-65
2023/08/18 05:21:33;;;;;;;16.45;12.70;;;;;;;-145.63;46.62;38226.44;5023471;28;20100;-65
2023/08/18 05:23:59;;;;;;;18.30;11.25;;;;;;;-145.63;45.74;38187.34;5023213;28;20325;-65
2023/08/18 05:26:25;;;;;;;16.98;11.93;;;;;;;-145.63;46.73;38208.84;5023208;28;20040;-66
2023/08/18 05:28:50;;;;;;;18.17;10.45;;;;;;;-145.63;46.80;38216.66;5023000;28;20121;-66
2023/08/18 05:31:16;;;;;;;21.52;12.55;;;;;;;-145.63;46.39;38210.81;5022020;28;20060;-66
2023/08/18 05:33:42;;;;;;;15.98;12.75;;;;;;;-145.63;45.98;38222.53;5023657;28;20033;-65
2023/08/18 05:36:07;;;;;;;21.33;12.25;;;;;;;-145.63;46.53;38191.25;5023313;28;20105;-65
2023/08/18 05:38:34;;;;;;;14.15;10.98;;;;;;;-145.63;46.64;38156.06;5023179;28;20076;-65
2023/08/18 05:41:07;;;;;;;15.75;10.98;;;;;;;-145.63;46.87;38181.47;5021956;28;20025;-64
2023/08/18 05:43:37;;;;;;;17.20;12.10;;;;;;;-145.63;46.97;38199.06;5023165;28;20026;-64
2023/08/18 05:46:03;;;;;;;20.00;13.32;;;;;;;-145.63;46.11;38169.75;5023257;28;20060;-64
2023/08/18 05:48:30;;;;;;;21.10;13.45;;;;;;;-145.63;45.92;38158.00;5023017;28;20018;-65
2023/08/18 05:50:56;;;;;;;17.63;11.13;;;;;;;-145.63;46.43;38161.91;5022998;28;20057;-65
2023/08/18 05:53:22;;;;;;;14.52;9.57;;;;;;;-145.63;47.17;38165.84;5022981;28;20093;-64
2023/08/18 05:55:48;;;;;;;16.83;11.30;;;;;;;-145.63;47.17;38156.06;5021696;28;20045;-65
2023/08/18 05:58:14;;;;;;;18.30;12.35;;;;;;;-145.63;46.48;38230.34;5026120;28;20290;-65
2023/08/18 06:00:39;;;;;;;23.35;12.00;;;;;;;-145.63;46.65;38124.78;5026561;28;20076;-65
2023/08/18 06:03:05;;;;;;;16.23;12.23;;;;;;;-145.63;46.00;38120.88;5026815;28;20043;-65
2023/08/18 06:05:31;;;;;;;19.15;11.38;;;;;;;-145.63;46.55;38093.50;5026490;28;20030;-65
2023/08/18 06:07:56;;;;;;;15.68;12.00;;;;;;;-145.63;47.05;38105.22;5025711;28;20057;-66
2023/08/18 06:10:22;;;;;;;18.45;11.85;;;;;;;-145.63;46.13;38054.38;5026540;28;20038;-64
2023/08/18 06:12:49;;;;;;;16.48;12.82;;;;;;;-145.63;45.93;38075.91;5026687;28;20037;-64
2023/08/18 06:15:16;;;;;;;18.65;11.77;;;;;;;-145.63;45.93;38050.47;5026470;28;20325;-65
2023/08/18 06:17:41;;;;;;;21.73;13.32;;;;;;;-145.63;44.79;38056.34;5026536;28;20021;-65
2023/08/18 06:20:07;;;;;;;19.77;13.75;;;;;;;-145.63;44.96;38073.94;5026654;28;20253;-65
2023/08/18 06:22:33;;;;;;;16.38;12.75;;;;;;;-145.63;45.05;38034.84;5026195;28;20032;-65
2023/08/18 06:24:58;;;;;;;16.73;11.65;;;;;;;-145.63;45.00;38023.09;5026217;28;20026;-64
2023/08/18 06:27:24;;;;;;;21.92;10.63;;;;;;;-145.63;45.53;38019.19;5026329;28;20356;-65
2023/08/18 06:29:50;;;;;;;14.98;12.77;;;;;;;-145.63;46.06;37976.19;5026089;28;20069;-64
2023/08/18 06:32:15;;;;;;;21.50;15.40;;;;;;;-145.63;45.45;38001.59;5026291;28;20080;-64
2023/08/18 06:34:41;;;;;;;17.23;13.07;;;;;;;-145.63;42.57;38019.19;5026104;28;20033;-65
2023/08/18 06:37:07;;;;;;;18.20;13.20;;;;;;;-145.63;43.18;37984.00;5025031;28;20064;-64
2023/08/18 06:39:32;;;;;;;19.88;13.07;;;;;;;-145.63;42.81;37999.66;5025956;28;20026;-64
2023/08/18 06:41:58;;;;;;;19.55;11.95;;;;;;;-145.63;43.27;37888.22;5026050;28;20030;-64
2023/08/18 06:44:24;;;;;;;14.93;11.27;;;;;;;-145.63;44.11;37950.75;5025800;28;20026;-65
2023/08/18 06:46:50;;;;;;;19.80;11.75;;;;;;;-145.63;44.40;37903.84;5026008;28;20310;-65
2023/08/18 06:49:15;;;;;;;17.80;12.05;;;;;;;-145.63;44.33;37866.69;5026231;28;20255;-65
2023/08/18 06:51:41;;;;;;;17.40;10.32;;;;;;;-145.63;44.33;37866.69;5025862;28;20041;-65
2023/08/18 06:54:06;;;;;;;16.27;13.23;;;;;;;-145.63;43.11;37833.47;5026108;28;20088;-66
2023/08/18 06:56:32;;;;;;;15.65;11.90;;;;;;;-145.63;42.99;37847.16;5025696;28;20033;-65
2023/08/18 06:58:58;;;;;;;16.23;11.20;;;;;;;-145.63;42.29;37794.38;5025757;28;20033;-65
2023/08/18 07:01:25;;;;;;;18.77;14.35;;;;;;;-145.63;41.94;37765.03;5025721;28;20029;-62
2023/08/18 07:03:52;;;;;;;17.27;12.48;;;;;;;-145.63;41.84;37753.31;5024569;28;20030;-63
2023/08/18 07:06:20;;;;;;;14.80;11.25;;;;;;;-145.63;40.41;37710.31;5020414;28;20198;-62
2023/08/18 07:08:46;;;;;;;15.93;11.50;;;;;;;-145.63;39.62;37548.03;5024893;28;20064;-63
2023/08/18 07:11:11;;;;;;;16.67;12.82;;;;;;;-145.63;39.86;37679.03;5025410;28;20030;-62
2023/08/18 07:13:37;;;;;;;18.80;11.32;;;;;;;-145.63;38.83;37741.56;5023972;28;20054;-65
2023/08/18 07:16:03;;;;;;;22.85;12.55;;;;;;;-145.63;39.61;37718.13;5025335;28;20042;-63
2023/08/18 07:18:29;;;;;;;26.50;14.68;;;;;;;-145.63;40.47;37747.44;5025341;28;20359;-65
2023/08/18 07:20:57;;;;;;;23.05;15.45;;;;;;;-145.63;40.83;37747.44;5025273;28;20026;-64
2023/08/18 07:23:24;;;;;;;17.95;13.90;;;;;;;-145.63;41.08;37688.78;5025605;28;20112;-63
2023/08/18 07:25:50;;;;;;;19.85;13.63;;;;;;;-145.63;40.87;37659.47;5025146;28;20099;-64
2023/08/18 07:28:16;;;;;;;16.25;13.88;;;;;;;-145.63;41.92;37649.69;5023971;28;20385;-63
2023/08/18 07:30:42;;;;;;;19.15;11.20;;;;;;;-145.63;42.14;37610.59;5025195;28;20030;-63
2023/08/18 07:33:07;;;;;;;14.65;10.63;;;;;;;-145.63;41.44;37620.38;5024724;28;20084;-63
2023/08/18 07:35:34;;;;;;;15.60;9.77;;;;;;;-145.63;41.48;37585.19;5025062;28;20021;-64
2023/08/18 07:37:59;;;;;;;17.17;11.35;;;;;;;-145.63;41.98;37548.03;5024836;28;20029;-63
2023/08/18 07:40:25;;;;;;;13.02;8.93;;;;;;;-145.63;42.31;37571.50;5024231;28;20030;-63
2023/08/18 07:42:51;;;;;;;9.77;8.10;;;;;;;-145.63;43.17;37546.09;5024837;28;20021;-63
2023/08/18 07:45:16;;;;;;;13.48;8.73;;;;;;;-145.63;42.44;37561.72;5024477;28;20026;-64
2023/08/18 07:47:43;;;;;;;13.73;8.82;;;;;;;-145.63;41.44;37579.31;5024632;28;20084;-63
2023/08/18 07:50:10;;;;;;;11.93;8.68;;;;;;;-145.63;40.98;37571.50;5024600;28;20037;-64
2023/08/18 07:52:36;;;;;;;13.18;8.55;;;;;;;-145.63;41.20;37563.69;5024742;28;20045;-63
2023/08/18 07:55:04;;;;;;;12.93;9.05;;;;;;;-145.63;40.51;37585.19;5024785;28;20033;-65
2023/08/18 07:57:30;;;;;;;12.27;8.27;;;;;;;-145.63;40.91;37499.16;5005107;28;20029;-63
2023/08/18 07:59:56;;;;;;;10.40;7.80;;;;;;;-145.63;40.16;37460.06;5020143;28;20186;-65
2023/08/18 08:02:22;;;;;;;10.48;7.93;;;;;;;-145.63;40.67;37450.31;5024205;28;20093;-64
2023/08/18 08:04:48;;;;;;;12.05;8.50;;;;;;;-145.63;40.51;37409.25;5024639;28;20049;-63
2023/08/18 08:07:13;;;;;;;10.13;7.65;;;;;;;-145.63;40.17;37377.97;5024434;28;20026;-63
2023/08/18 08:09:39;;;;;;;8.38;7.45;;;;;;;-145.63;40.71;36983.13;5024397;28;20022;-66
2023/08/18 08:12:06;;;;;;;10.70;8.60;;;;;;;-145.63;40.93;37321.28;5024535;28;20030;-66
2023/08/18 08:14:31;;;;;;;8.48;7.50;;;;;;;-145.63;40.17;37340.84;5024190;28;20253;-65
2023/08/18 08:16:58;;;;;;;7.97;7.10;;;;;;;-145.63;40.48;37336.91;5024220;28;20034;-70
2023/08/18 08:19:25;;;;;;;7.75;6.57;;;;;;;-145.63;39.72;37321.28;5023022;28;20206;-69
2023/08/18 08:21:50;;;;;;;7.85;6.78;;;;;;;-145.63;39.75;37258.72;5021880;28;20203;-69
2023/08/18 08:24:16;;;;;;;7.47;6.43;;;;;;;-145.63;37.65;37295.88;5024187;28;20060;-70
2023/08/18 08:26:42;;;;;;;10.38;6.03;;;;;;;-145.63;37.04;37286.09;5024026;28;20050;-70
2023/08/18 08:29:07;;;;;;;7.10;6.28;;;;;;;-145.63;37.35;37272.41;5024128;28;20057;-69
2023/08/18 08:31:33;;;;;;;8.23;7.07;;;;;;;-145.63;38.07;37166.84;5022797;28;20032;-67
2023/08/18 08:33:59;;;;;;;11.63;8.93;;;;;;;-145.63;38.32;37159.03;5024015;28;20052;-67
2023/08/18 08:36:24;;;;;;;9.00;7.53;;;;;;;-145.63;38.52;37118.00;5023612;28;20044;-67
2023/08/18 08:38:51;;;;;;;8.23;6.65;;;;;;;-145.63;38.40;37075.00;5023795;28;20130;-68
2023/08/18 08:41:17;;;;;;;8.65;6.80;;;;;;;-145.63;37.33;37106.25;5023525;28;20028;-68
2023/08/18 08:43:42;;;;;;;7.57;6.72;;;;;;;-145.63;37.48;37139.50;5022338;28;20022;-68
2023/08/18 08:46:08;;;;;;;7.63;6.57;;;;;;;-145.63;37.71;37116.03;5023881;28;20101;-66
2023/08/18 08:48:42;;;;;;;8.38;6.70;;;;;;;-145.63;37.31;37186.41;5023458;28;20084;-67
2023/08/18 08:51:10;;;;;;;10.13;6.63;;;;;;;-145.63;37.34;37204.00;5023424;28;20030;-67
2023/08/18 08:53:39;;;;;;;9.88;6.90;;;;;;;-145.63;37.46;37205.94;5022120;28;20198;-68
2023/08/18 08:56:07;;;;;;;7.15;6.45;;;;;;;-145.63;37.85;37188.38;5023728;28;20038;-68
2023/08/18 08:58:34;;;;;;;9.27;7.03;;;;;;;-145.63;39.33;37186.41;5023307;28;20313;-68
2023/08/18 09:01:00;;;;;;;9.23;6.88;;;;;;;-145.63;37.95;37198.13;5023424;28;20293;-67
2023/08/18 09:03:28;;;;;;;11.20;7.93;;;;;;;-145.63;38.18;37223.53;5023319;28;20076;-67
2023/08/18 09:05:54;;;;;;;7.97;6.85;;;;;;;-145.63;38.16;37166.84;5023765;28;20022;-67
2023/08/18 09:08:20;;;;;;;9.18;7.07;;;;;;;-145.63;38.16;37155.13;5023264;28;20313;-67
2023/08/18 09:10:46;;;;;;;10.75;7.75;;;;;;;-145.63;37.89;37161.00;5023594;28;20030;-67
2023/08/18 09:13:12;;;;;;;8.27;7.30;;;;;;;-145.63;39.01;37112.13;5023352;28;20098;-67
2023/08/18 09:15:41;;;;;;;9.50;8.50;;;;;;;-145.63;38.86;37006.56;5023198;28;20310;-67
2023/08/18 09:18:07;;;;;;;9.65;8.23;;;;;;;-145.63;38.30;37002.66;5023526;28;20305;-69
2023/08/18 09:20:34;;;;;;;12.05;8.90;;;;;;;-145.63;37.63;36998.75;5023132;28;20084;-68
2023/08/18 09:22:59;;;;;;;11.82;8.73;;;;;;;-145.63;37.12;37024.16;5023247;28;20088;-68
2023/08/18 09:25:25;;;;;;;11.25;9.20;;;;;;;-145.63;37.82;37104.31;5022999;28;20380;-68
2023/08/18 09:27:51;;;;;;;10.38;8.85;;;;;;;-145.63;37.84;37059.34;5023282;28;20033;-69
2023/08/18 09:30:16;;;;;;;11.70;8.55;;;;;;;-145.63;38.93;37057.41;5023165;28;20018;-67
2023/08/18 09:32:42;;;;;;;9.23;8.05;;;;;;;-145.63;38.99;37116.03;5025209;28;20030;-69
2023/08/18 09:35:12;;;;;;;15.80;8.98;;;;;;;-145.63;38.44;37100.41;5002034;28;20037;-69
2023/08/18 09:37:38;;;;;;;12.10;8.10;;;;;;;-145.63;38.58;37112.13;5027278;28;20337;-69
2023/08/18 09:40:05;;;;;;;10.13;7.88;;;;;;;-145.63;38.56;37129.72;5027152;28;20105;-70
2023/08/18 09:42:31;;;;;;;8.60;7.40;;;;;;;-145.63;39.13;37133.63;5026924;28;20093;-70
2023/08/18 09:44:57;;;;;;;8.50;7.70;;;;;;;-145.63;39.16;37121.91;5026821;28;20025;-70
2023/08/18 09:47:28;;;;;;;14.57;10.13;;;;;;;-145.63;39.60;36732.94;5026592;28;20081;-70
2023/08/18 09:49:54;;;;;;;;;;;;;;;-145.63;42.22;37198.13;5027216;28;20045;-70
2023/08/18 09:52:22;;;;;;;13.27;7.95;;;;;;;-145.63;41.05;37200.09;5025505;28;19912;-67
2023/08/18 09:55:10;;;;;;;17.92;10.45;;;;;;;-145.63;41.58;37217.69;5026897;28;20041;-68
2023/08/18 09:57:48;;;;;;;14.98;9.02;;;;;;;-145.63;41.17;37180.53;5026626;28;20041;-66
2023/08/18 10:00:16;;;;;;;13.63;7.45;;;;;;;-145.63;41.48;37215.72;5027071;28;20093;-66
2023/08/18 10:02:46;;;;;;;11.35;7.63;;;;;;;-145.63;41.04;37252.88;5026863;28;20093;-66
2023/08/18 10:05:14;;;;;;;9.75;7.55;;;;;;;-145.63;41.61;37247.00;5026760;28;20030;-66
2023/08/18 10:07:40;;;;;;;14.27;8.65;;;;;;;-145.63;41.48;37272.41;5026782;28;20092;-66
2023/08/18 10:10:08;;;;;;;11.23;8.75;;;;;;;-145.63;42.09;37264.59;5026855;28;20326;-66
2023/08/18 10:12:33;;;;;;;11.93;8.07;;;;;;;-145.63;42.06;37297.81;5026941;28;20226;-66
2023/08/18 10:15:01;;;;;;;11.10;8.60;;;;;;;-145.63;41.69;37311.50;5026577;28;20252;-67
2023/08/18 10:17:27;;;;;;;11.75;8.40;;;;;;;-145.63;41.71;37272.41;5026439;28;20049;-66
2023/08/18 10:20:00;;;;;;;14.70;9.02;;;;;;;-145.63;41.83;37299.78;5026631;28;20141;-66
2023/08/18 10:22:29;;;;;;;12.52;8.88;;;;;;;-145.63;42.91;37333.00;5026432;28;20033;-66
2023/08/18 10:24:56;;;;;;;13.85;8.20;;;;;;;-145.63;43.17;37362.34;5026449;28;20026;-67
2023/08/18 10:27:27;;;;;;;13.18;9.07;;;;;;;-145.63;43.10;37309.56;5026410;28;20022;-66
2023/08/18 10:30:21;;;;;;;13.13;9.77;;;;;;;-145.63;42.92;37334.97;5026322;28;20029;-67
2023/08/18 10:32:46;;;;;;;13.07;9.25;;;;;;;-145.63;42.43;37436.63;5026363;28;20026;-66
2023/08/18 10:35:23;;;;;;;11.68;9.02;;;;;;;-145.63;41.80;37356.47;5025939;28;20237;-67
2023/08/18 10:37:54;;;;;;;11.23;8.55;;;;;;;-145.63;41.19;37342.78;5026003;28;20333;-67
2023/08/18 10:40:28;;;;;;;9.40;8.40;;;;;;;-145.63;42.08;37379.94;5025798;28;20053;-66
2023/08/18 10:43:01;;;;;;;8.45;7.50;;;;;;;-145.63;42.10;37374.06;5006314;28;20034;-66
2023/08/18 10:45:28;;;;;;;11.55;8.75;;;;;;;-145.63;42.27;37415.13;5023419;28;20029;-66
2023/08/18 10:48:03;;;;;;;12.82;9.27;;;;;;;-145.63;41.57;37374.06;5025236;28;20025;-66
2023/08/18 10:50:31;;;;;;;12.00;9.65;;;;;;;-145.63;42.12;37389.69;5025758;28;20033;-66
2023/08/18 10:52:57;;;;;;;13.63;9.77;;;;;;;-145.63;42.79;37417.06;5025973;28;20057;-66
2023/08/18 10:55:26;;;;;;;14.77;10.40;;;;;;;-145.63;43.42;37393.59;5026015;28;20059;-66
2023/08/18 10:57:52;;;;;;;13.27;10.35;;;;;;;-145.63;43.97;37420.97;5025691;28;20301;-67
2023/08/18 11:00:18;;;;;;;13.90;12.05;;;;;;;-145.63;44.86;37399.47;5025585;28;20037;-66
2023/08/18 11:02:47;;;;;;;36.75;30.27;;;;;;;-145.63;45.23;37405.34;5025804;28;20088;-66
2023/08/18 11:05:13;;;;;;;13.25;10.93;;;;;;;-145.63;46.39;37424.88;5025758;28;20030;-66